sensor_id;sensor_type;location;lat;lon;timestamp;temperature;humidity
46400;DHT22;32104;50.838;4.388;2023-04-30T00:00:19;11.10;99.90
46400;DHT22;32104;50.838;4.388;2023-04-30T00:02:51;11.10;99.90
46400;DHT22;32104;50.838;4.388;2023-04-30T00:05:29;11.20;99.90
46400;DHT22;32104;50.838;4.388;2023-04-30T00:08:03;11.20;99.90
46400;DHT22;32104;50.838;4.388;2023-04-30T00:10:34;11.20;99.90
46400;DHT22;32104;50.838;4.388;2023-04-30T00:13:02;11.10;99.90
46400;DHT22;32104;50.838;4.388;2023-04-30T00:15:30;11.10;99.90
46400;DHT22;32104;50.838;4.388;2023-04-30T00:17:56;11.10;99.90
46400;DHT22;32104;50.838;4.388;2023-04-30T00:20:25;11.10;99.90
46400;DHT22;32104;50.838;4.388;2023-04-30T00:22:50;11.20;99.90
46400;DHT22;32104;50.838;4.388;2023-04-30T00:25:20;11.10;99.90
46400;DHT22;32104;50.838;4.388;2023-04-30T00:27:51;11.10;99.90
46400;DHT22;32104;50.838;4.388;2023-04-30T00:30:21;11.20;99.90
46400;DHT22;32104;50.838;4.388;2023-04-30T00:32:47;11.10;99.90
46400;DHT22;32104;50.838;4.388;2023-04-30T00:35:18;10.90;99.90
46400;DHT22;32104;50.838;4.388;2023-04-30T00:37:44;10.90;99.90
46400;DHT22;32104;50.838;4.388;2023-04-30T00:40:11;10.90;99.90
46400;DHT22;32104;50.838;4.388;2023-04-30T00:42:41;10.90;99.90
46400;DHT22;32104;50.838;4.388;2023-04-30T00:45:07;10.80;99.90
46400;DHT22;32104;50.838;4.388;2023-04-30T00:47:32;10.90;99.90
46400;DHT22;32104;50.838;4.388;2023-04-30T00:49:58;10.90;99.90
46400;DHT22;32104;50.838;4.388;2023-04-30T00:52:24;10.80;99.90
46400;DHT22;32104;50.838;4.388;2023-04-30T00:54:55;10.90;99.90
46400;DHT22;32104;50.838;4.388;2023-04-30T00:57:21;10.90;99.90
46400;DHT22;32104;50.838;4.388;2023-04-30T00:59:52;10.80;99.90
46400;DHT22;32104;50.838;4.388;2023-04-30T01:02:22;10.90;99.90
46400;DHT22;32104;50.838;4.388;2023-04-30T01:04:50;10.80;99.90
46400;DHT22;32104;50.838;4.388;2023-04-30T01:07:16;10.80;99.90
46400;DHT22;32104;50.838;4.388;2023-04-30T01:09:44;10.80;99.90
46400;DHT22;32104;50.838;4.388;2023-04-30T01:12:20;10.80;99.90
46400;DHT22;32104;50.838;4.388;2023-04-30T01:15:03;10.70;99.90
46400;DHT22;32104;50.838;4.388;2023-04-30T01:17:40;10.70;99.90
46400;DHT22;32104;50.838;4.388;2023-04-30T01:20:08;10.70;99.90
46400;DHT22;32104;50.838;4.388;2023-04-30T01:22:41;10.70;99.90
46400;DHT22;32104;50.838;4.388;2023-04-30T01:28:05;10.80;99.90
46400;DHT22;32104;50.838;4.388;2023-04-30T01:30:31;10.80;99.90
46400;DHT22;32104;50.838;4.388;2023-04-30T01:32:57;10.70;99.90
46400;DHT22;32104;50.838;4.388;2023-04-30T01:35:28;10.70;99.90
46400;DHT22;32104;50.838;4.388;2023-04-30T01:40:37;10.70;99.90
46400;DHT22;32104;50.838;4.388;2023-04-30T01:45:54;10.70;99.90
46400;DHT22;32104;50.838;4.388;2023-04-30T01:53:58;10.90;99.90
46400;DHT22;32104;50.838;4.388;2023-04-30T01:59:03;10.90;99.90
46400;DHT22;32104;50.838;4.388;2023-04-30T02:01:30;10.80;99.90
46400;DHT22;32104;50.838;4.388;2023-04-30T02:04:01;10.80;99.90
46400;DHT22;32104;50.838;4.388;2023-04-30T02:06:31;10.70;99.90
46400;DHT22;32104;50.838;4.388;2023-04-30T02:09:06;10.60;99.90
46400;DHT22;32104;50.838;4.388;2023-04-30T02:11:35;10.60;99.90
46400;DHT22;32104;50.838;4.388;2023-04-30T02:14:11;10.70;99.90
46400;DHT22;32104;50.838;4.388;2023-04-30T02:16:39;10.50;99.90
46400;DHT22;32104;50.838;4.388;2023-04-30T02:19:14;10.50;99.90
46400;DHT22;32104;50.838;4.388;2023-04-30T02:21:53;10.60;99.90
46400;DHT22;32104;50.838;4.388;2023-04-30T02:24:26;10.60;99.90
46400;DHT22;32104;50.838;4.388;2023-04-30T02:26:55;10.60;99.90
46400;DHT22;32104;50.838;4.388;2023-04-30T02:29:21;10.50;99.90
46400;DHT22;32104;50.838;4.388;2023-04-30T02:31:57;10.40;99.90
46400;DHT22;32104;50.838;4.388;2023-04-30T02:34:28;10.40;99.90
46400;DHT22;32104;50.838;4.388;2023-04-30T02:36:55;10.30;99.90
46400;DHT22;32104;50.838;4.388;2023-04-30T02:39:21;10.30;99.90
46400;DHT22;32104;50.838;4.388;2023-04-30T02:41:48;10.30;99.90
46400;DHT22;32104;50.838;4.388;2023-04-30T02:44:15;10.30;99.90
46400;DHT22;32104;50.838;4.388;2023-04-30T02:46:41;10.30;99.90
46400;DHT22;32104;50.838;4.388;2023-04-30T02:49:10;10.30;99.90
46400;DHT22;32104;50.838;4.388;2023-04-30T02:51:35;10.20;99.90
46400;DHT22;32104;50.838;4.388;2023-04-30T02:54:01;10.20;99.90
46400;DHT22;32104;50.838;4.388;2023-04-30T02:56:27;10.20;99.90
46400;DHT22;32104;50.838;4.388;2023-04-30T02:58:53;10.20;99.90
46400;DHT22;32104;50.838;4.388;2023-04-30T03:01:20;10.10;99.90
46400;DHT22;32104;50.838;4.388;2023-04-30T03:03:45;10.10;99.90
46400;DHT22;32104;50.838;4.388;2023-04-30T03:06:11;10.10;99.90
46400;DHT22;32104;50.838;4.388;2023-04-30T03:08:42;10.20;99.90
46400;DHT22;32104;50.838;4.388;2023-04-30T03:11:11;10.10;99.90
46400;DHT22;32104;50.838;4.388;2023-04-30T03:13:43;10.00;99.90
46400;DHT22;32104;50.838;4.388;2023-04-30T03:16:18;10.10;99.90
46400;DHT22;32104;50.838;4.388;2023-04-30T03:18:51;10.30;99.90
46400;DHT22;32104;50.838;4.388;2023-04-30T03:21:21;10.10;99.90
46400;DHT22;32104;50.838;4.388;2023-04-30T03:23:49;10.20;99.90
46400;DHT22;32104;50.838;4.388;2023-04-30T03:26:15;10.20;99.90
46400;DHT22;32104;50.838;4.388;2023-04-30T03:28:42;10.30;99.90
46400;DHT22;32104;50.838;4.388;2023-04-30T03:31:10;10.10;99.90
46400;DHT22;32104;50.838;4.388;2023-04-30T03:33:35;10.10;99.90
46400;DHT22;32104;50.838;4.388;2023-04-30T03:36:13;10.00;99.90
46400;DHT22;32104;50.838;4.388;2023-04-30T03:38:39;10.10;99.90
46400;DHT22;32104;50.838;4.388;2023-04-30T03:41:12;9.90;99.90
46400;DHT22;32104;50.838;4.388;2023-04-30T03:43:41;9.80;99.90
46400;DHT22;32104;50.838;4.388;2023-04-30T03:46:06;9.70;99.90
46400;DHT22;32104;50.838;4.388;2023-04-30T03:48:32;9.70;99.90
46400;DHT22;32104;50.838;4.388;2023-04-30T03:50:58;9.60;99.90
46400;DHT22;32104;50.838;4.388;2023-04-30T03:53:26;9.70;99.90
46400;DHT22;32104;50.838;4.388;2023-04-30T03:55:54;9.80;99.90
46400;DHT22;32104;50.838;4.388;2023-04-30T03:58:25;9.70;99.90
46400;DHT22;32104;50.838;4.388;2023-04-30T04:00:52;9.70;99.90
46400;DHT22;32104;50.838;4.388;2023-04-30T04:03:18;9.70;99.90
46400;DHT22;32104;50.838;4.388;2023-04-30T04:05:44;9.70;99.90
46400;DHT22;32104;50.838;4.388;2023-04-30T04:08:10;9.60;99.90
46400;DHT22;32104;50.838;4.388;2023-04-30T04:10:37;9.50;99.90
46400;DHT22;32104;50.838;4.388;2023-04-30T04:13:04;9.50;99.90
46400;DHT22;32104;50.838;4.388;2023-04-30T04:15:30;9.50;99.90
46400;DHT22;32104;50.838;4.388;2023-04-30T04:17:58;9.60;99.90
46400;DHT22;32104;50.838;4.388;2023-04-30T04:20:26;9.70;99.90
46400;DHT22;32104;50.838;4.388;2023-04-30T04:22:55;9.60;99.90
46400;DHT22;32104;50.838;4.388;2023-04-30T04:25:21;9.50;99.90
46400;DHT22;32104;50.838;4.388;2023-04-30T04:28:07;9.60;99.90
46400;DHT22;32104;50.838;4.388;2023-04-30T04:30:35;9.70;99.90
46400;DHT22;32104;50.838;4.388;2023-04-30T04:33:02;9.50;99.90
46400;DHT22;32104;50.838;4.388;2023-04-30T04:38:09;9.40;99.90
46400;DHT22;32104;50.838;4.388;2023-04-30T04:40:59;9.40;99.90
46400;DHT22;32104;50.838;4.388;2023-04-30T04:43:25;9.50;99.90
46400;DHT22;32104;50.838;4.388;2023-04-30T04:45:51;9.50;99.90
46400;DHT22;32104;50.838;4.388;2023-04-30T04:48:20;9.40;99.90
46400;DHT22;32104;50.838;4.388;2023-04-30T04:50:51;9.40;99.90
46400;DHT22;32104;50.838;4.388;2023-04-30T04:53:17;9.40;99.90
46400;DHT22;32104;50.838;4.388;2023-04-30T04:55:47;9.40;99.90
46400;DHT22;32104;50.838;4.388;2023-04-30T04:58:13;9.50;99.90
46400;DHT22;32104;50.838;4.388;2023-04-30T05:00:40;9.60;99.90
46400;DHT22;32104;50.838;4.388;2023-04-30T05:03:07;9.70;99.90
46400;DHT22;32104;50.838;4.388;2023-04-30T05:05:36;9.60;99.90
46400;DHT22;32104;50.838;4.388;2023-04-30T05:08:04;9.50;99.90
46400;DHT22;32104;50.838;4.388;2023-04-30T05:10:30;9.60;99.90
46400;DHT22;32104;50.838;4.388;2023-04-30T05:12:56;9.70;99.90
46400;DHT22;32104;50.838;4.388;2023-04-30T05:15:21;9.70;99.90
46400;DHT22;32104;50.838;4.388;2023-04-30T05:17:47;9.80;99.90
46400;DHT22;32104;50.838;4.388;2023-04-30T05:20:16;9.80;99.90
46400;DHT22;32104;50.838;4.388;2023-04-30T05:22:42;9.80;99.90
46400;DHT22;32104;50.838;4.388;2023-04-30T05:25:08;9.70;99.90
46400;DHT22;32104;50.838;4.388;2023-04-30T05:27:34;9.70;99.90
46400;DHT22;32104;50.838;4.388;2023-04-30T05:30:02;9.60;99.90
46400;DHT22;32104;50.838;4.388;2023-04-30T05:32:27;9.60;99.90
46400;DHT22;32104;50.838;4.388;2023-04-30T05:34:56;9.60;99.90
46400;DHT22;32104;50.838;4.388;2023-04-30T05:37:23;9.60;99.90
46400;DHT22;32104;50.838;4.388;2023-04-30T05:39:51;9.60;99.90
46400;DHT22;32104;50.838;4.388;2023-04-30T05:42:20;9.60;99.90
46400;DHT22;32104;50.838;4.388;2023-04-30T05:44:49;9.60;99.90
46400;DHT22;32104;50.838;4.388;2023-04-30T05:47:15;9.60;99.90
46400;DHT22;32104;50.838;4.388;2023-04-30T05:49:41;9.60;99.90
46400;DHT22;32104;50.838;4.388;2023-04-30T05:52:13;9.60;99.90
46400;DHT22;32104;50.838;4.388;2023-04-30T05:54:44;9.60;99.90
46400;DHT22;32104;50.838;4.388;2023-04-30T05:57:14;9.50;99.90
46400;DHT22;32104;50.838;4.388;2023-04-30T05:59:42;9.70;99.90
46400;DHT22;32104;50.838;4.388;2023-04-30T06:02:10;9.70;99.90
46400;DHT22;32104;50.838;4.388;2023-04-30T06:04:41;9.70;99.90
46400;DHT22;32104;50.838;4.388;2023-04-30T06:07:11;9.80;99.90
46400;DHT22;32104;50.838;4.388;2023-04-30T06:09:37;9.90;99.90
46400;DHT22;32104;50.838;4.388;2023-04-30T06:12:03;10.00;99.90
46400;DHT22;32104;50.838;4.388;2023-04-30T06:14:29;10.00;99.90
46400;DHT22;32104;50.838;4.388;2023-04-30T06:16:55;10.00;99.90
46400;DHT22;32104;50.838;4.388;2023-04-30T06:19:20;10.00;99.90
46400;DHT22;32104;50.838;4.388;2023-04-30T06:21:48;10.00;99.90
46400;DHT22;32104;50.838;4.388;2023-04-30T06:24:14;10.10;99.90
46400;DHT22;32104;50.838;4.388;2023-04-30T06:26:40;10.20;99.90
46400;DHT22;32104;50.838;4.388;2023-04-30T06:29:06;10.20;99.90
46400;DHT22;32104;50.838;4.388;2023-04-30T06:31:35;10.30;99.90
46400;DHT22;32104;50.838;4.388;2023-04-30T06:34:00;10.40;99.90
46400;DHT22;32104;50.838;4.388;2023-04-30T06:36:29;10.40;99.90
46400;DHT22;32104;50.838;4.388;2023-04-30T06:38:56;10.50;99.90
46400;DHT22;32104;50.838;4.388;2023-04-30T06:41:24;10.60;99.90
46400;DHT22;32104;50.838;4.388;2023-04-30T06:43:51;10.60;99.90
46400;DHT22;32104;50.838;4.388;2023-04-30T06:46:20;10.80;99.90
46400;DHT22;32104;50.838;4.388;2023-04-30T06:48:46;11.00;99.90
46400;DHT22;32104;50.838;4.388;2023-04-30T06:51:11;11.10;99.90
46400;DHT22;32104;50.838;4.388;2023-04-30T06:53:38;11.30;99.90
46400;DHT22;32104;50.838;4.388;2023-04-30T06:56:12;11.40;99.90
46400;DHT22;32104;50.838;4.388;2023-04-30T06:58:40;11.40;99.90
46400;DHT22;32104;50.838;4.388;2023-04-30T07:01:26;11.60;99.90
46400;DHT22;32104;50.838;4.388;2023-04-30T07:03:51;11.80;99.90
46400;DHT22;32104;50.838;4.388;2023-04-30T07:06:25;12.10;99.90
46400;DHT22;32104;50.838;4.388;2023-04-30T07:08:53;12.30;99.90
46400;DHT22;32104;50.838;4.388;2023-04-30T07:11:21;12.40;99.90
46400;DHT22;32104;50.838;4.388;2023-04-30T07:13:50;12.60;99.90
46400;DHT22;32104;50.838;4.388;2023-04-30T07:16:16;12.70;99.90
46400;DHT22;32104;50.838;4.388;2023-04-30T07:18:42;12.80;99.90
46400;DHT22;32104;50.838;4.388;2023-04-30T07:21:19;12.90;99.90
46400;DHT22;32104;50.838;4.388;2023-04-30T07:23:49;12.90;99.90
46400;DHT22;32104;50.838;4.388;2023-04-30T07:26:16;13.00;99.90
46400;DHT22;32104;50.838;4.388;2023-04-30T07:28:47;13.20;99.90
46400;DHT22;32104;50.838;4.388;2023-04-30T07:31:14;13.20;99.90
46400;DHT22;32104;50.838;4.388;2023-04-30T07:33:39;13.20;99.90
46400;DHT22;32104;50.838;4.388;2023-04-30T07:36:06;13.30;99.90
46400;DHT22;32104;50.838;4.388;2023-04-30T07:38:35;13.50;99.90
46400;DHT22;32104;50.838;4.388;2023-04-30T07:41:01;13.60;99.90
46400;DHT22;32104;50.838;4.388;2023-04-30T07:43:28;13.70;99.90
46400;DHT22;32104;50.838;4.388;2023-04-30T07:45:55;13.90;99.90
46400;DHT22;32104;50.838;4.388;2023-04-30T07:48:22;13.90;99.90
46400;DHT22;32104;50.838;4.388;2023-04-30T07:50:48;13.90;99.90
46400;DHT22;32104;50.838;4.388;2023-04-30T07:53:13;14.10;99.90
46400;DHT22;32104;50.838;4.388;2023-04-30T07:55:42;14.30;99.90
46400;DHT22;32104;50.838;4.388;2023-04-30T07:58:10;14.20;99.90
46400;DHT22;32104;50.838;4.388;2023-04-30T08:03:27;14.50;99.90
46400;DHT22;32104;50.838;4.388;2023-04-30T08:06:09;14.60;99.90
46400;DHT22;32104;50.838;4.388;2023-04-30T08:08:37;14.40;99.90
46400;DHT22;32104;50.838;4.388;2023-04-30T08:11:09;14.60;99.90
46400;DHT22;32104;50.838;4.388;2023-04-30T08:13:49;14.60;99.90
46400;DHT22;32104;50.838;4.388;2023-04-30T08:16:15;14.70;99.90
46400;DHT22;32104;50.838;4.388;2023-04-30T08:18:41;14.80;99.90
46400;DHT22;32104;50.838;4.388;2023-04-30T08:21:27;14.90;99.90
46400;DHT22;32104;50.838;4.388;2023-04-30T08:24:03;15.00;99.90
46400;DHT22;32104;50.838;4.388;2023-04-30T08:26:31;15.10;99.90
46400;DHT22;32104;50.838;4.388;2023-04-30T08:28:57;15.30;99.90
46400;DHT22;32104;50.838;4.388;2023-04-30T08:31:23;15.50;99.90
46400;DHT22;32104;50.838;4.388;2023-04-30T08:33:51;15.60;99.90
46400;DHT22;32104;50.838;4.388;2023-04-30T08:36:19;15.60;99.90
46400;DHT22;32104;50.838;4.388;2023-04-30T08:38:45;15.70;99.90
46400;DHT22;32104;50.838;4.388;2023-04-30T08:41:12;15.70;99.90
46400;DHT22;32104;50.838;4.388;2023-04-30T08:43:41;15.80;99.90
46400;DHT22;32104;50.838;4.388;2023-04-30T08:46:13;15.90;99.90
46400;DHT22;32104;50.838;4.388;2023-04-30T08:48:53;15.90;99.90
46400;DHT22;32104;50.838;4.388;2023-04-30T08:51:20;16.00;99.90
46400;DHT22;32104;50.838;4.388;2023-04-30T08:53:53;16.00;99.90
46400;DHT22;32104;50.838;4.388;2023-04-30T08:56:26;16.20;99.90
46400;DHT22;32104;50.838;4.388;2023-04-30T08:58:57;16.20;99.90
46400;DHT22;32104;50.838;4.388;2023-04-30T09:01:23;16.30;99.90
46400;DHT22;32104;50.838;4.388;2023-04-30T09:03:49;16.30;99.90
46400;DHT22;32104;50.838;4.388;2023-04-30T09:06:21;16.30;99.90
46400;DHT22;32104;50.838;4.388;2023-04-30T09:08:48;16.30;99.90
46400;DHT22;32104;50.838;4.388;2023-04-30T09:11:20;16.30;99.90
46400;DHT22;32104;50.838;4.388;2023-04-30T09:13:52;16.30;99.90
46400;DHT22;32104;50.838;4.388;2023-04-30T09:16:19;16.40;99.90
46400;DHT22;32104;50.838;4.388;2023-04-30T09:18:45;16.40;99.90
46400;DHT22;32104;50.838;4.388;2023-04-30T09:21:12;16.60;99.90
46400;DHT22;32104;50.838;4.388;2023-04-30T09:23:57;16.60;99.90
46400;DHT22;32104;50.838;4.388;2023-04-30T09:26:26;16.60;99.90
46400;DHT22;32104;50.838;4.388;2023-04-30T09:28:56;16.50;99.90
46400;DHT22;32104;50.838;4.388;2023-04-30T09:31:22;16.70;99.90
46400;DHT22;32104;50.838;4.388;2023-04-30T09:33:50;16.70;99.90
46400;DHT22;32104;50.838;4.388;2023-04-30T09:36:18;16.80;99.90
46400;DHT22;32104;50.838;4.388;2023-04-30T09:38:51;16.80;99.90
46400;DHT22;32104;50.838;4.388;2023-04-30T09:41:27;16.70;99.90
46400;DHT22;32104;50.838;4.388;2023-04-30T09:43:59;16.70;99.90
46400;DHT22;32104;50.838;4.388;2023-04-30T09:46:30;16.80;99.90
46400;DHT22;32104;50.838;4.388;2023-04-30T09:48:59;17.00;99.90
46400;DHT22;32104;50.838;4.388;2023-04-30T09:51:28;17.20;99.90
46400;DHT22;32104;50.838;4.388;2023-04-30T09:53:54;17.30;99.90
46400;DHT22;32104;50.838;4.388;2023-04-30T09:59:13;17.20;99.90
46400;DHT22;32104;50.838;4.388;2023-04-30T10:01:43;17.30;99.90
46400;DHT22;32104;50.838;4.388;2023-04-30T10:06:44;17.70;99.90
46400;DHT22;32104;50.838;4.388;2023-04-30T10:09:10;17.90;99.90
46400;DHT22;32104;50.838;4.388;2023-04-30T10:11:40;17.80;99.90
46400;DHT22;32104;50.838;4.388;2023-04-30T10:14:11;17.90;99.90
46400;DHT22;32104;50.838;4.388;2023-04-30T10:19:25;17.80;99.90
46400;DHT22;32104;50.838;4.388;2023-04-30T10:22:08;17.70;99.90
46400;DHT22;32104;50.838;4.388;2023-04-30T10:27:35;18.00;99.90
46400;DHT22;32104;50.838;4.388;2023-04-30T10:30:01;18.20;99.90
46400;DHT22;32104;50.838;4.388;2023-04-30T10:32:30;18.20;99.90
46400;DHT22;32104;50.838;4.388;2023-04-30T10:35:07;18.40;99.90
46400;DHT22;32104;50.838;4.388;2023-04-30T10:37:38;18.50;99.90
46400;DHT22;32104;50.838;4.388;2023-04-30T10:40:21;18.60;99.90
46400;DHT22;32104;50.838;4.388;2023-04-30T10:42:49;18.80;99.90
46400;DHT22;32104;50.838;4.388;2023-04-30T10:45:15;18.90;99.90
46400;DHT22;32104;50.838;4.388;2023-04-30T10:47:41;18.80;99.90
46400;DHT22;32104;50.838;4.388;2023-04-30T10:50:13;18.70;99.90
46400;DHT22;32104;50.838;4.388;2023-04-30T14:30:49;20.80;96.30
46400;DHT22;32104;50.838;4.388;2023-04-30T14:33:14;20.60;95.70
46400;DHT22;32104;50.838;4.388;2023-04-30T14:35:40;20.40;95.90
46400;DHT22;32104;50.838;4.388;2023-04-30T15:12:28;20.30;95.50
46400;DHT22;32104;50.838;4.388;2023-04-30T15:37:10;20.30;95.80
46400;DHT22;32104;50.838;4.388;2023-04-30T16:03:54;20.50;95.80
46400;DHT22;32104;50.838;4.388;2023-04-30T16:06:22;20.40;95.60
46400;DHT22;32104;50.838;4.388;2023-04-30T16:08:53;20.60;95.60
46400;DHT22;32104;50.838;4.388;2023-04-30T16:11:20;20.60;95.80
46400;DHT22;32104;50.838;4.388;2023-04-30T16:14:04;20.70;95.60
46400;DHT22;32104;50.838;4.388;2023-04-30T16:16:37;20.70;95.20
46400;DHT22;32104;50.838;4.388;2023-04-30T16:19:06;20.60;94.90
46400;DHT22;32104;50.838;4.388;2023-04-30T16:24:39;20.50;95.20
46400;DHT22;32104;50.838;4.388;2023-04-30T16:27:28;20.40;95.30
46400;DHT22;32104;50.838;4.388;2023-04-30T16:30:09;20.40;95.60
46400;DHT22;32104;50.838;4.388;2023-04-30T16:32:41;20.30;95.30
46400;DHT22;32104;50.838;4.388;2023-04-30T16:35:11;20.20;95.90
46400;DHT22;32104;50.838;4.388;2023-04-30T16:37:43;20.10;95.50
46400;DHT22;32104;50.838;4.388;2023-04-30T16:40:17;19.90;95.50
46400;DHT22;32104;50.838;4.388;2023-04-30T16:42:43;20.00;96.20
46400;DHT22;32104;50.838;4.388;2023-04-30T16:45:12;20.00;95.90
46400;DHT22;32104;50.838;4.388;2023-04-30T16:47:38;20.00;95.60
46400;DHT22;32104;50.838;4.388;2023-04-30T16:50:07;20.00;95.90
46400;DHT22;32104;50.838;4.388;2023-04-30T16:52:49;20.10;95.60
46400;DHT22;32104;50.838;4.388;2023-04-30T16:55:21;20.20;95.90
46400;DHT22;32104;50.838;4.388;2023-04-30T16:57:58;20.10;95.60
46400;DHT22;32104;50.838;4.388;2023-04-30T17:00:35;20.00;95.80
46400;DHT22;32104;50.838;4.388;2023-04-30T17:03:04;20.00;96.20
46400;DHT22;32104;50.838;4.388;2023-04-30T17:05:47;20.10;95.80
46400;DHT22;32104;50.838;4.388;2023-04-30T17:08:18;20.10;95.60
46400;DHT22;32104;50.838;4.388;2023-04-30T17:10:59;20.10;95.20
46400;DHT22;32104;50.838;4.388;2023-04-30T17:13:25;20.10;95.50
46400;DHT22;32104;50.838;4.388;2023-04-30T17:15:54;20.10;95.40
46400;DHT22;32104;50.838;4.388;2023-04-30T17:18:28;19.90;95.40
46400;DHT22;32104;50.838;4.388;2023-04-30T17:20:54;19.60;95.90
46400;DHT22;32104;50.838;4.388;2023-04-30T17:23:19;19.50;96.50
46400;DHT22;32104;50.838;4.388;2023-04-30T17:25:54;19.50;96.60
46400;DHT22;32104;50.838;4.388;2023-04-30T17:28:28;19.40;96.40
46400;DHT22;32104;50.838;4.388;2023-04-30T17:30:57;19.40;96.70
46400;DHT22;32104;50.838;4.388;2023-04-30T17:33:27;19.40;96.70
46400;DHT22;32104;50.838;4.388;2023-04-30T17:36:02;19.30;96.90
46400;DHT22;32104;50.838;4.388;2023-04-30T17:38:30;19.10;96.90
46400;DHT22;32104;50.838;4.388;2023-04-30T17:40:56;19.20;96.70
46400;DHT22;32104;50.838;4.388;2023-04-30T17:43:22;19.20;96.70
46400;DHT22;32104;50.838;4.388;2023-04-30T17:45:49;19.30;96.60
46400;DHT22;32104;50.838;4.388;2023-04-30T17:48:18;19.20;96.80
46400;DHT22;32104;50.838;4.388;2023-04-30T17:50:46;19.20;97.10
46400;DHT22;32104;50.838;4.388;2023-04-30T17:53:11;19.10;96.80
46400;DHT22;32104;50.838;4.388;2023-04-30T17:55:40;19.20;96.70
46400;DHT22;32104;50.838;4.388;2023-04-30T17:58:06;19.10;96.80
46400;DHT22;32104;50.838;4.388;2023-04-30T18:00:39;19.30;97.00
46400;DHT22;32104;50.838;4.388;2023-04-30T18:03:12;19.10;97.90
46400;DHT22;32104;50.838;4.388;2023-04-30T18:05:41;19.10;97.40
46400;DHT22;32104;50.838;4.388;2023-04-30T18:11:02;19.10;98.10
46400;DHT22;32104;50.838;4.388;2023-04-30T18:13:28;19.10;98.90
46400;DHT22;32104;50.838;4.388;2023-04-30T18:16:00;19.10;98.40
46400;DHT22;32104;50.838;4.388;2023-04-30T18:18:29;19.10;98.20
46400;DHT22;32104;50.838;4.388;2023-04-30T18:21:00;19.00;97.80
46400;DHT22;32104;50.838;4.388;2023-04-30T18:23:49;18.90;97.80
46400;DHT22;32104;50.838;4.388;2023-04-30T18:26:24;18.90;97.90
46400;DHT22;32104;50.838;4.388;2023-04-30T18:28:54;18.80;97.90
46400;DHT22;32104;50.838;4.388;2023-04-30T18:31:26;18.80;98.00
46400;DHT22;32104;50.838;4.388;2023-04-30T18:33:52;18.70;98.40
46400;DHT22;32104;50.838;4.388;2023-04-30T18:36:19;18.70;98.40
46400;DHT22;32104;50.838;4.388;2023-04-30T18:38:48;18.80;97.80
46400;DHT22;32104;50.838;4.388;2023-04-30T18:41:17;18.70;98.10
46400;DHT22;32104;50.838;4.388;2023-04-30T18:43:46;18.60;98.40
46400;DHT22;32104;50.838;4.388;2023-04-30T18:46:13;18.50;98.60
46400;DHT22;32104;50.838;4.388;2023-04-30T18:48:39;18.60;98.70
46400;DHT22;32104;50.838;4.388;2023-04-30T18:51:05;18.50;98.80
46400;DHT22;32104;50.838;4.388;2023-04-30T18:53:31;18.50;99.00
46400;DHT22;32104;50.838;4.388;2023-04-30T18:55:56;18.50;99.00
46400;DHT22;32104;50.838;4.388;2023-04-30T18:58:24;18.40;99.80
46400;DHT22;32104;50.838;4.388;2023-04-30T19:00:50;18.40;99.40
46400;DHT22;32104;50.838;4.388;2023-04-30T19:03:17;18.30;99.70
46400;DHT22;32104;50.838;4.388;2023-04-30T19:05:44;18.20;99.60
46400;DHT22;32104;50.838;4.388;2023-04-30T19:08:13;18.20;99.70
46400;DHT22;32104;50.838;4.388;2023-04-30T19:10:39;18.10;99.90
46400;DHT22;32104;50.838;4.388;2023-04-30T19:13:05;18.10;99.90
46400;DHT22;32104;50.838;4.388;2023-04-30T19:15:31;18.10;99.90
46400;DHT22;32104;50.838;4.388;2023-04-30T19:18:00;18.10;99.90
46400;DHT22;32104;50.838;4.388;2023-04-30T19:20:27;18.10;99.90
46400;DHT22;32104;50.838;4.388;2023-04-30T19:23:01;18.20;99.90
46400;DHT22;32104;50.838;4.388;2023-04-30T19:25:27;18.10;99.90
46400;DHT22;32104;50.838;4.388;2023-04-30T19:27:52;18.10;99.90
46400;DHT22;32104;50.838;4.388;2023-04-30T19:30:23;18.10;99.90
46400;DHT22;32104;50.838;4.388;2023-04-30T19:32:51;18.20;99.90
46400;DHT22;32104;50.838;4.388;2023-04-30T19:35:17;18.10;99.90
46400;DHT22;32104;50.838;4.388;2023-04-30T19:37:43;18.10;99.90
46400;DHT22;32104;50.838;4.388;2023-04-30T19:40:09;18.00;99.90
46400;DHT22;32104;50.838;4.388;2023-04-30T19:42:36;18.00;99.90
46400;DHT22;32104;50.838;4.388;2023-04-30T19:45:15;18.00;99.90
46400;DHT22;32104;50.838;4.388;2023-04-30T19:47:41;18.00;99.90
46400;DHT22;32104;50.838;4.388;2023-04-30T19:50:10;17.90;99.90
46400;DHT22;32104;50.838;4.388;2023-04-30T19:52:36;17.90;99.90
46400;DHT22;32104;50.838;4.388;2023-04-30T19:55:01;17.90;99.90
46400;DHT22;32104;50.838;4.388;2023-04-30T19:57:30;17.90;99.90
46400;DHT22;32104;50.838;4.388;2023-04-30T19:59:59;17.90;99.90
46400;DHT22;32104;50.838;4.388;2023-04-30T20:02:26;17.80;99.90
46400;DHT22;32104;50.838;4.388;2023-04-30T20:04:52;17.80;99.90
46400;DHT22;32104;50.838;4.388;2023-04-30T20:07:18;17.80;99.90
46400;DHT22;32104;50.838;4.388;2023-04-30T20:09:44;17.70;99.90
46400;DHT22;32104;50.838;4.388;2023-04-30T20:12:09;17.50;99.90
46400;DHT22;32104;50.838;4.388;2023-04-30T20:14:35;17.50;99.90
46400;DHT22;32104;50.838;4.388;2023-04-30T20:17:01;17.50;99.90
46400;DHT22;32104;50.838;4.388;2023-04-30T20:19:32;17.50;99.90
46400;DHT22;32104;50.838;4.388;2023-04-30T20:22:00;17.50;99.90
46400;DHT22;32104;50.838;4.388;2023-04-30T20:24:38;17.30;99.90
46400;DHT22;32104;50.838;4.388;2023-04-30T20:27:08;17.30;99.90
46400;DHT22;32104;50.838;4.388;2023-04-30T20:29:34;17.30;99.90
46400;DHT22;32104;50.838;4.388;2023-04-30T20:32:00;17.20;99.90
46400;DHT22;32104;50.838;4.388;2023-04-30T20:34:29;17.20;99.90
46400;DHT22;32104;50.838;4.388;2023-04-30T20:36:56;17.10;99.90
46400;DHT22;32104;50.838;4.388;2023-04-30T20:39:22;17.20;99.90
46400;DHT22;32104;50.838;4.388;2023-04-30T20:41:48;17.20;99.90
46400;DHT22;32104;50.838;4.388;2023-04-30T20:44:14;17.00;99.90
46400;DHT22;32104;50.838;4.388;2023-04-30T20:49:44;17.00;99.90
46400;DHT22;32104;50.838;4.388;2023-04-30T20:55:07;16.80;99.90
46400;DHT22;32104;50.838;4.388;2023-04-30T20:57:35;16.70;99.90
46400;DHT22;32104;50.838;4.388;2023-04-30T21:00:11;16.70;99.90
46400;DHT22;32104;50.838;4.388;2023-04-30T21:03:06;16.60;99.90
46400;DHT22;32104;50.838;4.388;2023-04-30T21:05:34;16.60;99.90
46400;DHT22;32104;50.838;4.388;2023-04-30T21:08:02;16.60;99.90
46400;DHT22;32104;50.838;4.388;2023-04-30T21:10:28;16.60;99.90
46400;DHT22;32104;50.838;4.388;2023-04-30T21:12:59;16.60;99.90
46400;DHT22;32104;50.838;4.388;2023-04-30T21:15:27;16.60;99.90
46400;DHT22;32104;50.838;4.388;2023-04-30T21:17:56;16.70;99.90
46400;DHT22;32104;50.838;4.388;2023-04-30T21:20:23;16.50;99.90
46400;DHT22;32104;50.838;4.388;2023-04-30T21:22:56;16.40;99.90
46400;DHT22;32104;50.838;4.388;2023-04-30T21:25:34;16.30;99.90
46400;DHT22;32104;50.838;4.388;2023-04-30T21:28:02;16.30;99.90